Terminal Aerodrome Forecast
Issued by NWS

Home | Current Version | Previous Version | Text Only | Print | Product List | Glossary On
Versions: 1 2 3 4 5 6 7 8 9 10 11 12 13
000
FTUS45 KPIH 292300
TAFSUN
TAF
KSUN 292323Z 3000/3024 23011KT P6SM SCT100
     FM300300 29011KT P6SM VCTS FEW060CB BKN100
     FM300900 32009KT P6SM VCSH SCT060 BKN100
     FM301500 18008KT P6SM SCT060 BKN200
     FM302000 24014G25KT P6SM SCT060
      AMD LTD TO CLD VIS AND WIND 3005/3013=

USA.gov is the U.S. government's official web portal to all federal, state and local government web resources and services.